createdAt,value
2019-02-14T00:01:22.686Z,7.20
2019-02-14T00:06:28.152Z,7.10
2019-02-14T00:11:33.638Z,7.10
2019-02-14T00:16:39.083Z,7.10
2019-02-14T00:21:44.527Z,7.10
2019-02-14T00:26:49.976Z,7.10
2019-02-14T00:31:55.461Z,7.10
2019-02-14T00:37:00.983Z,7.10
2019-02-14T00:42:06.423Z,7.00
2019-02-14T00:47:12.211Z,7.10
2019-02-14T00:52:17.638Z,7.10
2019-02-14T00:57:23.082Z,7.00
2019-02-14T01:02:28.550Z,7.00
2019-02-14T01:07:34.010Z,7.00
2019-02-14T01:12:39.458Z,7.00
2019-02-14T01:17:44.902Z,7.00
2019-02-14T01:22:50.344Z,7.00
2019-02-14T01:27:55.903Z,7.00
2019-02-14T01:33:01.856Z,7.00
2019-02-14T01:38:07.707Z,7.00
2019-02-14T01:43:13.545Z,7.00
2019-02-14T01:48:19.012Z,7.00
2019-02-14T01:53:25.492Z,7.00
2019-02-14T01:58:30.943Z,7.00
2019-02-14T02:03:36.390Z,6.90
2019-02-14T02:08:41.858Z,7.00
2019-02-14T02:13:47.386Z,7.00
2019-02-14T02:18:52.896Z,6.90
2019-02-14T02:23:58.420Z,6.90
2019-02-14T02:29:04.302Z,7.00
2019-02-14T02:34:10.195Z,6.90
2019-02-14T02:39:15.666Z,6.90
2019-02-14T02:44:21.129Z,7.00
2019-02-14T02:49:29.267Z,6.90
2019-02-14T02:54:32.420Z,6.90
2019-02-14T02:59:38.270Z,6.90
2019-02-14T03:04:43.738Z,6.90
2019-02-14T03:09:49.604Z,6.90
2019-02-14T03:14:55.119Z,6.70
2019-02-14T03:20:00.616Z,6.70
2019-02-14T03:25:09.661Z,6.70
2019-02-14T03:30:15.583Z,6.70
2019-02-14T03:35:21.036Z,6.70
2019-02-14T03:40:26.559Z,6.70
2019-02-14T03:45:32.004Z,6.70
2019-02-14T03:50:37.626Z,6.70
2019-02-14T03:55:43.494Z,6.60
2019-02-14T04:00:48.939Z,6.70
2019-02-14T04:05:54.493Z,6.70
2019-02-14T04:11:00.706Z,6.60
2019-02-14T04:16:06.512Z,6.60
2019-02-14T04:21:11.996Z,6.70
2019-02-14T04:26:17.450Z,6.60
2019-02-14T04:31:22.893Z,6.60
2019-02-14T04:36:35.915Z,6.60
2019-02-14T04:41:33.846Z,6.60
2019-02-14T04:46:39.321Z,6.60
2019-02-14T04:51:45.758Z,6.60
2019-02-14T04:56:51.254Z,6.60
2019-02-14T05:01:57.043Z,6.50
2019-02-14T05:07:02.519Z,6.50
2019-02-14T05:12:07.959Z,6.60
2019-02-14T05:17:13.431Z,6.50
2019-02-14T05:22:18.890Z,6.60
2019-02-14T05:27:24.326Z,6.60
2019-02-14T05:32:29.775Z,6.60
2019-02-14T05:37:35.240Z,6.60
2019-02-14T05:42:41.022Z,6.60
2019-02-14T05:47:46.831Z,6.60
2019-02-14T05:52:52.284Z,6.60
2019-02-14T05:57:57.738Z,6.60
2019-02-14T06:03:03.286Z,6.60
2019-02-14T06:08:08.753Z,6.60
2019-02-14T06:13:14.191Z,6.50
2019-02-14T06:18:20.644Z,6.50
2019-02-14T06:23:26.101Z,6.50
2019-02-14T06:28:31.914Z,6.40
2019-02-14T06:33:37.434Z,6.40
2019-02-14T06:38:42.874Z,6.50
2019-02-14T06:43:48.594Z,6.50
2019-02-14T06:48:54.079Z,6.60
2019-02-14T06:53:59.643Z,6.60
2019-02-14T06:59:05.751Z,6.70
2019-02-14T07:04:11.474Z,6.60
2019-02-14T07:09:17.115Z,6.70
2019-02-14T07:14:22.611Z,6.70
2019-02-14T07:19:28.152Z,6.70
2019-02-14T07:24:33.963Z,6.80
2019-02-14T07:29:39.664Z,6.90
2019-02-14T07:34:45.122Z,7.00
2019-02-14T07:39:51.477Z,7.00
2019-02-14T07:44:57.755Z,7.00
2019-02-14T07:50:03.297Z,7.00
2019-02-14T07:55:10.146Z,7.00
2019-02-14T08:00:15.661Z,7.10
2019-02-14T08:05:21.324Z,7.10
2019-02-14T08:10:26.864Z,7.10
2019-02-14T08:15:32.363Z,7.20
2019-02-14T08:20:37.886Z,7.20
2019-02-14T08:25:44.639Z,7.30
2019-02-14T08:30:50.369Z,7.30
2019-02-14T08:35:55.875Z,7.40
2019-02-14T08:41:01.771Z,7.50
2019-02-14T08:46:08.615Z,7.50
2019-02-14T08:51:14.439Z,7.50
2019-02-14T08:56:19.862Z,7.60
2019-02-14T09:01:25.323Z,7.60
2019-02-14T09:06:30.802Z,7.60
2019-02-14T09:11:36.247Z,7.60
2019-02-14T09:16:41.687Z,7.80
2019-02-14T09:21:47.124Z,7.80
2019-02-14T09:26:52.571Z,7.90
2019-02-14T09:31:58.479Z,7.90
2019-02-14T09:37:04.228Z,8.10
2019-02-14T09:42:10.444Z,8.20
2019-02-14T09:47:16.244Z,8.30
2019-02-14T09:52:21.704Z,8.40
2019-02-14T09:57:27.340Z,8.50
2019-02-14T10:02:33.484Z,8.40
2019-02-14T10:07:38.922Z,8.50
2019-02-14T10:12:45.092Z,8.50
2019-02-14T10:17:50.615Z,8.80
2019-02-14T10:22:59.039Z,8.80
2019-02-14T10:28:04.578Z,9.10
2019-02-14T10:33:10.016Z,9.10
2019-02-14T10:38:22.065Z,9.20
2019-02-14T10:43:21.062Z,9.20
2019-02-14T10:48:26.916Z,9.20
2019-02-14T10:53:32.721Z,9.70
2019-02-14T10:58:38.535Z,9.50
2019-02-14T11:03:44.445Z,9.40
2019-02-14T11:08:49.896Z,9.50
2019-02-14T11:13:55.557Z,9.60
2019-02-14T11:19:01.227Z,9.40
2019-02-14T11:24:07.527Z,9.50
2019-02-14T11:29:13.001Z,9.70
2019-02-14T11:34:18.503Z,9.90
2019-02-14T11:39:24.834Z,9.60
2019-02-14T11:44:39.771Z,9.70
2019-02-14T11:49:42.126Z,9.60
2019-02-14T11:54:47.775Z,9.70
2019-02-14T11:59:53.435Z,9.60
2019-02-14T12:04:59.019Z,9.70
2019-02-14T12:10:13.174Z,9.90
2019-02-14T12:15:11.027Z,10.40
2019-02-14T12:20:16.883Z,11.30
2019-02-14T12:25:22.755Z,11.90
2019-02-14T12:30:28.533Z,11.30
2019-02-14T12:35:34.211Z,10.70
2019-02-14T12:40:39.774Z,10.30
2019-02-14T12:45:45.652Z,10.50
2019-02-14T12:50:51.221Z,10.50
2019-02-14T12:55:56.744Z,11.10
2019-02-14T13:01:02.646Z,11.70
2019-02-14T13:06:08.525Z,12.00
2019-02-14T13:11:14.443Z,11.90
2019-02-14T13:16:19.921Z,11.80
2019-02-14T13:21:31.792Z,11.90
2019-02-14T13:26:37.300Z,11.90
2019-02-14T13:31:42.746Z,11.90
2019-02-14T13:36:48.255Z,11.50
2019-02-14T13:41:53.713Z,11.60
2019-02-14T13:46:59.200Z,11.70
2019-02-14T13:52:05.017Z,11.80
2019-02-14T13:57:10.569Z,11.90
2019-02-14T14:02:16.151Z,11.70
2019-02-14T14:07:22.089Z,11.70
2019-02-14T14:12:27.662Z,11.60
2019-02-14T14:17:33.152Z,11.60
2019-02-14T14:22:38.712Z,11.50
2019-02-14T14:27:44.210Z,11.50
2019-02-14T14:32:49.723Z,11.30
2019-02-14T14:37:55.252Z,11.10
2019-02-14T14:43:05.163Z,10.90
2019-02-14T14:48:19.236Z,10.70
2019-02-14T14:53:17.878Z,10.60
2019-02-14T14:58:23.354Z,10.40
2019-02-14T15:03:28.839Z,10.30
2019-02-14T15:08:34.303Z,10.20
2019-02-14T15:13:39.798Z,10.00
2019-02-14T15:18:45.279Z,9.90
2019-02-14T15:23:50.720Z,9.80
2019-02-14T15:28:56.547Z,9.80
2019-02-14T15:34:02.161Z,9.70
2019-02-14T15:39:07.918Z,9.60
2019-02-14T15:44:13.388Z,9.40
2019-02-14T15:49:20.595Z,9.40
2019-02-14T15:54:26.655Z,9.20
2019-02-14T15:59:33.351Z,9.00
2019-02-14T16:04:38.820Z,8.80
2019-02-14T16:09:44.369Z,8.50
2019-02-14T16:14:50.167Z,8.20
2019-02-14T16:19:57.545Z,8.20
2019-02-14T16:25:02.601Z,8.00
2019-02-14T16:30:09.443Z,7.40
2019-02-14T16:35:13.787Z,7.10
2019-02-14T16:40:27.953Z,6.80
2019-02-14T16:45:29.234Z,6.50
2019-02-14T16:50:34.731Z,6.30
2019-02-14T16:55:40.348Z,6.00
2019-02-14T17:00:45.906Z,5.80
2019-02-14T17:05:51.432Z,5.60
2019-02-14T17:10:56.967Z,5.50
2019-02-14T17:16:02.553Z,5.30
2019-02-14T17:21:08.471Z,5.10
2019-02-14T17:26:13.962Z,4.90
2019-02-14T17:31:19.498Z,4.80
2019-02-14T17:36:24.999Z,4.50
2019-02-14T17:41:30.556Z,4.40
2019-02-14T17:46:36.125Z,4.20
2019-02-14T17:51:41.739Z,4.20
2019-02-14T17:56:47.575Z,4.10
2019-02-14T18:01:53.228Z,4.00
2019-02-14T18:06:58.788Z,3.80
2019-02-14T18:12:04.606Z,3.70
2019-02-14T18:17:10.318Z,3.60
2019-02-14T18:22:15.908Z,3.50
2019-02-14T18:27:21.706Z,3.40
2019-02-14T18:32:27.572Z,3.30
2019-02-14T18:37:33.016Z,3.20
2019-02-14T18:42:39.955Z,3.00
2019-02-14T18:47:45.390Z,2.90
2019-02-14T18:52:51.678Z,2.80
2019-02-14T18:57:57.146Z,2.80
2019-02-14T19:03:03.643Z,2.70
2019-02-14T19:08:09.090Z,2.60
2019-02-14T19:13:14.908Z,2.50
2019-02-14T19:18:20.437Z,2.40
2019-02-14T19:23:25.904Z,2.30
2019-02-14T19:28:31.822Z,2.30
2019-02-14T19:33:37.654Z,2.20
2019-02-14T19:38:43.288Z,2.10
2019-02-14T19:43:48.750Z,2.00
2019-02-14T19:48:54.190Z,1.90
2019-02-14T19:54:00.131Z,1.80
2019-02-14T19:59:06.348Z,1.70
2019-02-14T20:04:11.817Z,1.70
2019-02-14T20:09:17.653Z,1.70
2019-02-14T20:14:24.324Z,1.50
2019-02-14T20:19:29.783Z,1.50
2019-02-14T20:24:35.239Z,1.40
2019-02-14T20:29:40.709Z,1.40
2019-02-14T20:34:46.215Z,1.30
2019-02-14T20:39:52.018Z,1.30
2019-02-14T20:50:17.622Z,1.20
2019-02-14T20:55:23.155Z,1.10
2019-02-14T21:00:29.442Z,1.00
2019-02-14T21:05:34.905Z,1.00
2019-02-14T21:10:40.429Z,0.90
2019-02-14T21:15:46.015Z,0.80
2019-02-14T21:20:51.578Z,0.80
2019-02-14T21:25:57.815Z,0.70
2019-02-14T21:31:03.479Z,0.70
2019-02-14T21:36:09.258Z,0.70
2019-02-14T21:41:15.226Z,0.60
2019-02-14T21:46:21.387Z,0.60
2019-02-14T21:51:26.853Z,0.50
2019-02-14T21:56:32.331Z,0.50
2019-02-14T22:01:38.420Z,0.40
2019-02-14T22:06:43.967Z,0.40
2019-02-14T22:11:49.815Z,0.30
2019-02-14T22:16:55.408Z,0.30
2019-02-14T22:22:01.546Z,0.30
2019-02-14T22:27:07.016Z,0.20
2019-02-14T22:32:12.847Z,0.10
2019-02-14T22:37:18.654Z,0.20
2019-02-14T22:42:24.173Z,0.10
2019-02-14T22:47:29.977Z,0.00
2019-02-14T22:52:35.890Z,0.00
2019-02-14T22:57:41.679Z,0.00
2019-02-14T23:02:47.159Z,-0.10
2019-02-14T23:07:52.943Z,-0.10
2019-02-14T23:12:58.427Z,-0.20
2019-02-14T23:18:03.895Z,-0.20
2019-02-14T23:23:09.354Z,-0.20
2019-02-14T23:28:14.799Z,-0.30
2019-02-14T23:33:20.362Z,-0.30
2019-02-14T23:38:25.933Z,-0.40
2019-02-14T23:43:31.694Z,-0.50
2019-02-14T23:48:37.232Z,-0.40
2019-02-14T23:53:42.737Z,-0.60
2019-02-14T23:58:48.275Z,-0.50
